Time;durP1;ratioP1;P1;durP2;ratioP2;P2;SDS_P1;SDS_P2;PMS_P1;PMS_P2;Temp;Humidity;BMP_temperature;BMP_pressure;BME280_temperature;BME280_humidity;BME280_pressure;Samples;Min_cycle;Max_cycle;Signal;HPM_P1;HPM_P2
2022/06/27 00:01:17;;;;;;;4.70;4.40;;;20.60;95.80;;;;;;5010167;28;20469;-83
2022/06/27 00:03:44;;;;;;;4.30;4.00;;;20.50;96.20;;;;;;5011131;28;20457;-83
2022/06/27 00:06:11;;;;;;;5.23;4.83;;;20.60;96.50;;;;;;5034289;28;20456;-83
2022/06/27 00:08:38;;;;;;;5.13;4.43;;;20.50;96.40;;;;;;5029291;28;20497;-86
2022/06/27 00:11:05;;;;;;;4.50;4.13;;;20.60;96.80;;;;;;5028361;28;20488;-85
2022/06/27 00:13:32;;;;;;;5.03;4.53;;;20.70;96.60;;;;;;5012398;28;20657;-84
2022/06/27 00:15:58;;;;;;;5.40;4.90;;;20.70;96.70;;;;;;5025382;28;20456;-85
2022/06/27 00:18:31;;;;;;;5.67;5.17;;;20.60;96.80;;;;;;5025688;28;20518;-85
2022/06/27 00:20:57;;;;;;;5.17;4.77;;;20.60;97.30;;;;;;5007289;28;20460;-83
2022/06/27 00:23:24;;;;;;;4.70;4.30;;;20.60;97.40;;;;;;5012390;28;20464;-82
2022/06/27 00:25:51;;;;;;;9.37;5.03;;;20.60;97.60;;;;;;5030510;28;20461;-85
2022/06/27 00:28:17;;;;;;;5.67;5.17;;;20.60;97.40;;;;;;5016554;28;20453;-83
2022/06/27 00:30:44;;;;;;;5.10;4.73;;;20.50;97.30;;;;;;5016800;28;20567;-84
2022/06/27 00:33:11;;;;;;;5.23;4.83;;;20.60;97.20;;;;;;5025468;28;20426;-86
2022/06/27 00:35:38;;;;;;;5.30;4.90;;;20.60;97.20;;;;;;5017900;28;20460;-81
2022/06/27 00:38:04;;;;;;;4.80;4.50;;;20.40;97.30;;;;;;5025325;28;20844;-81
2022/06/27 00:40:31;;;;;;;5.90;5.40;;;20.50;98.00;;;;;;5025842;28;20484;-81
2022/06/27 00:42:58;;;;;;;5.17;4.77;;;20.40;98.20;;;;;;5026933;28;20444;-83
2022/06/27 00:45:25;;;;;;;7.13;6.50;;;20.30;98.50;;;;;;5025531;28;20488;-86
2022/06/27 00:47:52;;;;;;;6.80;6.17;;;20.30;98.70;;;;;;5009443;28;20497;-84
2022/06/27 00:50:19;;;;;;;6.50;5.87;;;20.30;99.00;;;;;;5023434;28;20469;-83
2022/06/27 00:52:46;;;;;;;6.00;5.50;;;20.30;99.20;;;;;;5026563;28;20462;-82
2022/06/27 00:55:13;;;;;;;6.10;5.70;;;20.30;99.10;;;;;;5024731;28;20488;-83
2022/06/27 00:57:40;;;;;;;6.17;5.67;;;20.30;99.30;;;;;;5023357;28;20467;-84
2022/06/27 01:00:08;;;;;;;6.77;6.17;;;20.30;99.30;;;;;;5024747;28;20496;-83
2022/06/27 01:02:35;;;;;;;6.30;5.90;;;20.40;99.30;;;;;;5009559;28;20458;-84
2022/06/27 01:05:04;;;;;;;7.50;7.00;;;20.30;99.30;;;;;;5028868;28;20473;-86
2022/06/27 01:07:30;;;;;;;6.33;5.80;;;20.30;99.60;;;;;;5025338;28;20461;-80
2022/06/27 01:09:58;;;;;;;6.07;5.50;;;20.60;99.50;;;;;;5026955;28;20825;-83
2022/06/27 01:12:25;;;;;;;6.20;5.77;;;20.50;99.40;;;;;;5026212;28;20484;-84
2022/06/27 01:14:52;;;;;;;7.00;6.50;;;20.50;99.50;;;;;;5027386;28;20868;-87
2022/06/27 01:17:19;;;;;;;7.03;6.53;;;20.70;99.80;;;;;;5023638;28;20465;-83
2022/06/27 01:19:46;;;;;;;7.53;6.93;;;20.70;99.60;;;;;;5024522;28;20480;-85
2022/06/27 01:22:13;;;;;;;8.80;7.97;;;20.70;99.90;;;;;;5025722;28;20468;-86
2022/06/27 01:24:39;;;;;;;7.60;7.10;;;20.60;99.90;;;;;;5022902;28;21040;-84
2022/06/27 01:27:07;;;;;;;8.40;7.70;;;20.80;99.90;;;;;;5029516;28;20467;-83
2022/06/27 01:29:33;;;;;;;7.33;6.83;;;20.60;99.90;;;;;;5031677;28;20572;-81
2022/06/27 01:32:00;;;;;;;9.17;8.37;;;20.70;99.90;;;;;;5032742;28;20473;-84
2022/06/27 01:34:27;;;;;;;7.53;7.03;;;20.80;99.90;;;;;;5016427;28;20476;-83
2022/06/27 01:36:54;;;;;;;8.40;7.60;;;20.70;99.90;;;;;;5013660;28;20457;-84
2022/06/27 01:39:25;;;;;;;8.90;8.20;;;20.60;99.90;;;;;;5032671;28;20525;-84
2022/06/27 01:42:02;;;;;;;7.57;7.07;;;20.50;99.90;;;;;;5016388;28;20863;-81
2022/06/27 01:44:31;;;;;;;7.20;6.70;;;20.50;99.90;;;;;;5019210;28;20472;-83
2022/06/27 01:47:05;;;;;;;6.60;6.10;;;20.50;99.90;;;;;;5038688;28;20480;-86
2022/06/27 01:49:33;;;;;;;6.77;6.27;;;20.50;99.90;;;;;;5050661;28;20572;-85
2022/06/27 01:52:03;;;;;;;7.70;7.10;;;20.60;99.90;;;;;;5044546;28;20481;-85
2022/06/27 01:54:32;;;;;;;7.53;6.73;;;20.80;99.90;;;;;;5045602;28;20752;-88
2022/06/27 01:56:58;;;;;;;7.67;6.97;;;20.80;99.80;;;;;;5030896;28;20437;-87
2022/06/27 01:59:27;;;;;;;7.57;6.87;;;20.60;99.90;;;;;;5045522;28;20465;-87
2022/06/27 02:01:54;;;;;;;7.43;6.80;;;20.50;99.90;;;;;;5033628;28;20207;-86
2022/06/27 02:04:21;;;;;;;6.83;6.33;;;20.30;99.90;;;;;;5028884;28;21058;-84
2022/06/27 02:06:48;;;;;;;7.30;6.57;;;20.30;99.90;;;;;;5001372;28;20472;-85
2022/06/27 02:09:16;;;;;;;6.63;5.90;;;20.60;99.90;;;;;;5022075;28;20450;-82
2022/06/27 02:11:45;;;;;;;7.23;6.63;;;20.60;99.90;;;;;;5019960;28;21040;-84
2022/06/27 02:14:13;;;;;;;5.20;4.73;;;20.50;99.90;;;;;;5011560;28;20591;-82
2022/06/27 02:16:42;;;;;;;5.90;5.03;;;20.30;99.90;;;;;;5003285;28;20445;-84
2022/06/27 02:19:14;;;;;;;4.80;4.40;;;20.30;99.90;;;;;;5019366;28;20444;-83
2022/06/27 02:21:41;;;;;;;5.33;4.90;;;20.20;99.90;;;;;;5001722;28;20456;-81
2022/06/27 02:24:09;;;;;;;4.97;4.57;;;20.20;99.90;;;;;;5019541;28;20481;-87
2022/06/27 02:26:36;;;;;;;4.57;4.17;;;20.10;99.90;;;;;;5018293;28;20485;-83
2022/06/27 02:29:04;;;;;;;5.80;4.50;;;20.10;99.90;;;;;;5003785;28;20856;-85
2022/06/27 02:31:31;;;;;;;4.37;4.07;;;20.10;99.90;;;;;;5025666;28;20958;-86
2022/06/27 02:33:58;;;;;;;4.57;4.20;;;20.10;99.90;;;;;;5022867;28;21062;-83
2022/06/27 02:36:31;;;;;;;4.93;4.53;;;20.10;99.90;;;;;;5007068;28;20459;-85
2022/06/27 02:38:59;;;;;;;4.63;4.23;;;20.50;99.20;;;;;;5026157;28;20453;-81
2022/06/27 02:41:33;;;;;;;6.60;4.50;;;20.30;98.90;;;;;;5006760;28;20904;-87
2022/06/27 02:44:07;;;;;;;4.33;4.03;;;20.20;99.30;;;;;;5021652;28;21017;-83
2022/06/27 02:46:34;;;;;;;4.27;3.87;;;20.10;99.50;;;;;;5023750;28;20457;-84
2022/06/27 02:49:02;;;;;;;4.93;4.53;;;20.20;99.70;;;;;;5019776;28;21116;-83
2022/06/27 02:51:41;;;;;;;4.17;3.87;;;20.10;99.60;;;;;;5037558;28;20478;-86
2022/06/27 02:54:18;;;;;;;4.80;4.50;;;20.10;99.70;;;;;;5045246;28;20518;-84
2022/06/27 02:57:08;;;;;;;5.07;4.67;;;20.10;99.60;;;;;;5029373;28;20454;-87
2022/06/27 02:59:38;;;;;;;6.13;4.50;;;20.10;99.80;;;;;;5027650;28;20444;-85
2022/06/27 03:02:10;;;;;;;4.40;3.83;;;20.00;99.80;;;;;;5020811;28;20500;-83
2022/06/27 03:04:38;;;;;;;4.60;4.20;;;20.00;99.90;;;;;;5025985;28;20484;-84
2022/06/27 03:07:05;;;;;;;4.60;4.20;;;20.00;99.90;;;;;;5018337;28;20461;-82
2022/06/27 03:09:32;;;;;;;4.70;4.40;;;20.00;99.90;;;;;;5022560;28;20496;-83
2022/06/27 03:11:59;;;;;;;5.30;4.20;;;20.00;99.90;;;;;;5022862;28;20469;-85
2022/06/27 03:14:25;;;;;;;4.30;3.90;;;20.00;99.90;;;;;;5022239;28;21012;-84
2022/06/27 03:16:52;;;;;;;4.90;4.50;;;20.00;99.90;;;;;;5019517;28;20481;-83
2022/06/27 03:19:19;;;;;;;4.17;3.77;;;20.00;99.90;;;;;;5007441;28;20965;-86
2022/06/27 03:21:46;;;;;;;4.60;4.20;;;20.00;99.90;;;;;;5024345;28;20464;-85
2022/06/27 03:24:13;;;;;;;4.20;3.80;;;19.90;99.90;;;;;;5008368;28;20482;-85
2022/06/27 03:26:39;;;;;;;5.20;4.70;;;20.00;99.90;;;;;;5026064;28;20632;-86
2022/06/27 03:29:06;;;;;;;7.03;4.60;;;20.00;99.90;;;;;;5031133;28;20545;-83
2022/06/27 03:31:33;;;;;;;4.70;4.30;;;20.10;99.90;;;;;;5005360;28;20476;-83
2022/06/27 03:33:59;;;;;;;4.33;4.03;;;20.10;99.50;;;;;;5030646;28;20505;-81
2022/06/27 03:36:26;;;;;;;4.90;4.50;;;20.10;99.40;;;;;;5023952;28;20454;-84
2022/06/27 03:38:53;;;;;;;4.30;3.97;;;20.30;99.00;;;;;;5028622;28;20483;-82
2022/06/27 03:41:20;;;;;;;4.00;3.70;;;20.20;99.00;;;;;;5008668;28;20461;-83
2022/06/27 03:43:47;;;;;;;5.10;4.33;;;20.10;99.10;;;;;;5025222;28;20464;-87
2022/06/27 03:46:14;;;;;;;4.93;4.50;;;20.10;99.40;;;;;;5020968;28;20524;-83
2022/06/27 03:51:26;;;;;;;5.10;4.60;;;20.30;99.30;;;;;;5021409;28;20476;-86
2022/06/27 03:53:52;;;;;;;5.00;4.50;;;20.20;99.30;;;;;;5023041;28;20604;-83
2022/06/27 03:56:19;;;;;;;5.47;5.00;;;20.30;99.60;;;;;;5021021;28;20462;-83
2022/06/27 03:58:46;;;;;;;5.00;4.60;;;20.10;99.80;;;;;;5001583;28;20558;-85
2022/06/27 04:01:13;;;;;;;6.50;5.73;;;20.10;99.90;;;;;;5021960;28;20454;-83
2022/06/27 04:03:41;;;;;;;5.90;5.40;;;20.30;99.90;;;;;;5024093;28;20484;-85
2022/06/27 04:06:08;;;;;;;5.80;5.23;;;20.40;99.90;;;;;;5008189;28;20452;-84
2022/06/27 04:08:34;;;;;;;5.90;5.30;;;20.20;99.90;;;;;;5023419;28;20465;-85
2022/06/27 04:11:01;;;;;;;6.50;4.90;;;20.10;99.90;;;;;;5030410;28;20449;-86
2022/06/27 04:13:29;;;;;;;5.43;5.03;;;20.00;99.90;;;;;;5017586;28;20456;-85
2022/06/27 04:15:55;;;;;;;6.00;5.07;;;20.00;99.90;;;;;;5025936;28;20994;-86
2022/06/27 04:18:22;;;;;;;6.27;5.67;;;20.30;99.90;;;;;;5009094;28;20466;-84
2022/06/27 04:20:49;;;;;;;5.70;5.30;;;20.20;99.90;;;;;;5009974;28;20500;-84
2022/06/27 04:23:16;;;;;;;6.53;5.90;;;20.30;99.90;;;;;;5024299;28;21065;-85
2022/06/27 04:25:42;;;;;;;6.53;5.93;;;20.10;99.90;;;;;;5022074;28;20983;-86
2022/06/27 04:28:10;;;;;;;5.80;5.40;;;20.20;99.90;;;;;;5023850;28;20441;-85
2022/06/27 04:30:36;;;;;;;6.20;5.70;;;20.00;99.90;;;;;;5005625;28;20462;-85
2022/06/27 04:33:03;;;;;;;6.00;5.40;;;20.00;99.90;;;;;;5022127;28;20477;-85
2022/06/27 04:35:30;;;;;;;6.63;5.87;;;20.10;99.90;;;;;;5021584;28;20481;-82
2022/06/27 04:37:57;;;;;;;6.23;5.73;;;20.30;99.90;;;;;;5022524;28;20476;-83
2022/06/27 04:40:25;;;;;;;6.40;5.80;;;20.30;99.90;;;;;;5034163;28;20484;-84
2022/06/27 04:42:51;;;;;;;7.23;5.60;;;20.10;99.90;;;;;;5013037;28;20472;-83
2022/06/27 04:45:19;;;;;;;7.23;6.60;;;20.10;99.90;;;;;;5013530;28;20989;-84
2022/06/27 04:47:46;;;;;;;6.50;6.00;;;20.00;99.90;;;;;;5004937;28;20466;-85
2022/06/27 04:50:17;;;;;;;6.47;5.87;;;19.90;99.90;;;;;;5005100;28;20485;-84
2022/06/27 04:52:44;;;;;;;6.90;6.20;;;19.90;99.90;;;;;;5007104;28;20476;-85
2022/06/27 04:55:12;;;;;;;7.13;6.53;;;20.00;99.90;;;;;;5024668;28;20477;-84
2022/06/27 04:57:42;;;;;;;8.60;6.70;;;20.00;99.90;;;;;;5028127;28;20449;-85
2022/06/27 05:00:12;;;;;;;7.60;6.90;;;20.00;99.90;;;;;;5040836;28;20449;-81
2022/06/27 05:02:43;;;;;;;8.60;7.03;;;20.00;99.90;;;;;;5023147;28;20542;-84
2022/06/27 05:05:10;;;;;;;7.23;6.70;;;20.30;99.90;;;;;;5034460;28;21018;-84
2022/06/27 05:07:37;;;;;;;8.40;7.70;;;20.50;99.90;;;;;;5023931;28;20518;-86
2022/06/27 05:10:05;;;;;;;8.80;8.10;;;20.60;99.90;;;;;;5031561;28;20448;-81
2022/06/27 05:12:32;;;;;;;9.73;8.00;;;20.70;99.90;;;;;;5007764;28;21015;-84
2022/06/27 05:14:59;;;;;;;9.23;8.43;;;20.50;99.90;;;;;;5021095;28;20470;-83
2022/06/27 05:17:25;;;;;;;9.27;8.30;;;20.70;99.90;;;;;;5004505;28;20441;-83
2022/06/27 05:19:52;;;;;;;8.00;7.20;;;20.40;99.90;;;;;;5032514;28;20470;-83
2022/06/27 05:22:19;;;;;;;8.67;7.77;;;20.30;99.90;;;;;;5021838;28;20461;-83
2022/06/27 05:24:48;;;;;;;8.87;7.97;;;20.20;99.90;;;;;;5008094;28;20473;-85
2022/06/27 05:27:17;;;;;;;8.70;7.90;;;20.30;99.90;;;;;;5024384;28;20466;-84
2022/06/27 05:29:44;;;;;;;8.53;7.70;;;20.30;99.90;;;;;;5008905;28;20480;-83
2022/06/27 05:32:11;;;;;;;8.97;8.10;;;20.70;99.90;;;;;;5004277;28;20484;-86
2022/06/27 05:34:38;;;;;;;9.50;8.70;;;20.80;99.90;;;;;;5020418;28;20496;-83
2022/06/27 05:37:05;;;;;;;8.77;8.07;;;20.80;99.90;;;;;;5021804;28;20464;-86
2022/06/27 05:39:33;;;;;;;8.50;7.73;;;20.70;99.90;;;;;;5001392;28;20460;-83
2022/06/27 05:42:03;;;;;;;8.77;8.00;;;20.60;99.90;;;;;;5004670;28;21610;-83
2022/06/27 05:44:29;;;;;;;7.47;6.87;;;20.40;99.90;;;;;;5007930;28;20610;-84
2022/06/27 05:46:57;;;;;;;7.63;7.10;;;20.30;99.90;;;;;;5023025;28;20487;-84
2022/06/27 05:49:24;;;;;;;7.17;6.67;;;20.30;99.90;;;;;;5020276;28;20470;-82
2022/06/27 05:51:52;;;;;;;7.10;6.50;;;20.10;99.90;;;;;;5020214;28;20500;-84
2022/06/27 05:54:21;;;;;;;7.67;7.00;;;20.30;99.90;;;;;;5005216;28;20477;-83
2022/06/27 05:56:48;;;;;;;7.87;7.27;;;20.30;99.90;;;;;;5021370;28;20458;-85
2022/06/27 05:59:16;;;;;;;7.53;6.93;;;20.20;99.90;;;;;;5007964;28;20460;-83
2022/06/27 06:01:45;;;;;;;7.37;6.80;;;20.20;99.90;;;;;;5023910;28;20473;-84
2022/06/27 06:04:14;;;;;;;9.10;6.80;;;20.30;99.90;;;;;;5023507;28;20466;-84
2022/06/27 06:06:41;;;;;;;6.97;6.37;;;20.30;99.90;;;;;;5035168;28;20450;-86
2022/06/27 06:09:08;;;;;;;7.77;7.00;;;20.50;99.90;;;;;;5049184;28;20464;-82
2022/06/27 06:11:35;;;;;;;8.77;7.87;;;20.70;99.90;;;;;;5018659;28;20549;-85
2022/06/27 06:14:03;;;;;;;7.97;7.27;;;20.50;99.90;;;;;;5030841;28;20512;-86
2022/06/27 06:16:30;;;;;;;7.93;7.23;;;20.40;99.90;;;;;;5009239;28;20533;-84
2022/06/27 06:18:59;;;;;;;9.37;8.57;;;20.30;99.90;;;;;;5028529;28;20846;-85
2022/06/27 06:21:26;;;;;;;7.87;7.17;;;20.20;99.90;;;;;;5008497;28;20951;-84
2022/06/27 06:23:53;;;;;;;9.80;9.00;;;20.40;99.90;;;;;;5012722;28;20492;-86
2022/06/27 06:26:20;;;;;;;9.10;8.27;;;20.30;99.90;;;;;;5011625;28;20473;-86
2022/06/27 06:28:49;;;;;;;9.13;8.23;;;20.40;99.90;;;;;;5030548;28;20465;-83
2022/06/27 06:31:21;;;;;;;10.63;7.83;;;20.50;99.90;;;;;;5030459;28;20472;-84
2022/06/27 06:33:53;;;;;;;8.60;7.67;;;20.60;99.90;;;;;;5027261;28;20558;-83
2022/06/27 06:36:23;;;;;;;9.00;8.10;;;20.40;99.90;;;;;;5025698;28;20505;-83
2022/06/27 06:38:51;;;;;;;10.07;9.10;;;20.50;99.90;;;;;;5029125;28;21608;-82
2022/06/27 06:41:18;;;;;;;9.87;8.87;;;20.60;99.90;;;;;;5023891;28;20520;-83
2022/06/27 06:43:48;;;;;;;9.03;8.33;;;20.60;99.90;;;;;;5042015;28;20568;-85
2022/06/27 06:46:15;;;;;;;10.37;9.27;;;20.40;99.90;;;;;;5043919;28;20487;-84
2022/06/27 06:48:42;;;;;;;10.97;9.87;;;20.40;99.90;;;;;;5042179;28;20601;-83
2022/06/27 06:51:16;;;;;;;11.17;10.13;;;20.40;99.90;;;;;;5039954;28;20484;-82
2022/06/27 06:53:43;;;;;;;9.70;8.80;;;20.50;99.90;;;;;;5031083;28;20584;-81
2022/06/27 06:56:10;;;;;;;10.97;10.07;;;20.50;99.90;;;;;;5009765;28;20971;-81
2022/06/27 06:58:37;;;;;;;10.00;9.23;;;20.50;99.90;;;;;;5003803;28;20457;-83
2022/06/27 07:01:05;;;;;;;11.17;10.30;;;20.60;99.90;;;;;;5022038;28;20457;-80
2022/06/27 07:03:33;;;;;;;11.90;10.90;;;20.50;99.90;;;;;;5009148;28;21018;-82
2022/06/27 07:06:02;;;;;;;11.30;10.30;;;20.50;99.90;;;;;;5004361;28;20450;-81
2022/06/27 07:08:30;;;;;;;11.90;10.87;;;20.60;99.90;;;;;;5024335;28;20487;-83
2022/06/27 07:10:58;;;;;;;12.63;11.53;;;20.60;99.90;;;;;;5028911;28;21007;-84
2022/06/27 07:13:25;;;;;;;11.07;10.07;;;20.40;99.90;;;;;;5032867;28;20539;-83
2022/06/27 07:15:51;;;;;;;12.50;11.40;;;20.50;99.90;;;;;;5034106;28;21143;-83
2022/06/27 07:18:18;;;;;;;15.30;11.97;;;20.80;99.90;;;;;;5031833;28;20454;-84
2022/06/27 07:20:45;;;;;;;14.67;12.00;;;20.80;99.90;;;;;;5012031;28;20563;-83
2022/06/27 07:23:12;;;;;;;13.77;12.43;;;20.90;99.90;;;;;;5023330;28;20454;-82
2022/06/27 07:25:40;;;;;;;14.20;13.00;;;21.20;99.90;;;;;;5013118;28;20534;-84
2022/06/27 07:28:07;;;;;;;13.63;12.47;;;21.10;99.90;;;;;;5028099;28;20445;-82
2022/06/27 07:30:34;;;;;;;14.17;12.77;;;21.00;99.90;;;;;;5023473;28;20451;-83
2022/06/27 07:33:01;;;;;;;14.70;13.40;;;21.00;99.90;;;;;;5040399;28;20953;-84
2022/06/27 07:35:29;;;;;;;13.13;11.90;;;21.00;99.90;;;;;;5021465;28;20477;-82
2022/06/27 07:37:55;;;;;;;14.90;13.60;;;20.90;99.90;;;;;;5018506;28;20457;-85
2022/06/27 07:40:23;;;;;;;14.50;13.10;;;21.20;99.90;;;;;;5024540;28;20460;-83
2022/06/27 07:42:52;;;;;;;15.57;14.07;;;21.50;99.90;;;;;;5038959;28;20458;-81
2022/06/27 07:45:22;;;;;;;15.57;14.20;;;21.40;99.90;;;;;;5038270;28;20480;-82
2022/06/27 07:47:50;;;;;;;15.60;14.00;;;21.30;99.90;;;;;;5040647;28;20483;-82
2022/06/27 07:53:17;;;;;;;13.73;12.50;;;21.10;99.90;;;;;;5041169;28;20750;-82
2022/06/27 07:55:52;;;;;;;13.17;12.07;;;21.10;99.90;;;;;;5039349;28;20450;-81
2022/06/27 07:58:24;;;;;;;15.13;13.60;;;21.10;99.90;;;;;;5042015;28;20449;-85
2022/06/27 08:00:53;;;;;;;16.47;15.00;;;21.30;99.90;;;;;;5025237;28;20440;-82
2022/06/27 08:03:36;;;;;;;15.87;14.37;;;22.10;99.30;;;;;;5044056;28;20600;-83
2022/06/27 08:06:05;;;;;;;12.60;11.57;;;21.80;99.20;;;;;;5040371;28;20449;-84
2022/06/27 08:08:33;;;;;;;12.70;11.53;;;21.50;99.40;;;;;;5041109;28;20483;-85
2022/06/27 08:11:03;;;;;;;13.70;12.53;;;21.30;99.90;;;;;;5026675;28;20482;-84
2022/06/27 08:13:33;;;;;;;14.60;13.40;;;21.20;99.90;;;;;;5023601;28;20485;-82
2022/06/27 08:16:03;;;;;;;11.73;10.63;;;21.10;99.90;;;;;;5025869;28;20496;-82
2022/06/27 08:18:32;;;;;;;50.20;44.80;;;21.00;99.90;;;;;;5009996;28;21239;-81
2022/06/27 08:21:00;;;;;;;11.57;10.63;;;20.90;99.90;;;;;;5013412;28;20449;-83
2022/06/27 08:23:28;;;;;;;10.37;9.40;;;21.00;99.90;;;;;;5030656;28;20456;-82
2022/06/27 08:25:58;;;;;;;12.40;11.30;;;21.00;99.90;;;;;;5037166;28;20445;-85
2022/06/27 08:28:26;;;;;;;12.43;10.80;;;21.00;99.90;;;;;;5017517;28;20515;-84
2022/06/27 08:30:54;;;;;;;16.50;12.10;;;21.00;99.90;;;;;;5032266;28;20453;-82
2022/06/27 08:33:21;;;;;;;11.57;10.37;;;21.00;99.90;;;;;;5039340;28;20550;-83
2022/06/27 08:35:48;;;;;;;10.20;9.40;;;21.00;99.90;;;;;;5025671;28;20445;-83
2022/06/27 08:38:16;;;;;;;10.80;9.17;;;20.90;99.90;;;;;;5044797;28;20484;-81
2022/06/27 08:40:44;;;;;;;11.00;9.67;;;20.80;99.90;;;;;;5041586;28;20448;-81
2022/06/27 08:43:11;;;;;;;10.13;9.10;;;20.80;99.90;;;;;;5023639;28;20465;-82
2022/06/27 08:45:38;;;;;;;10.73;9.63;;;20.70;99.90;;;;;;5043601;28;20463;-81
2022/06/27 08:48:10;;;;;;;10.27;9.37;;;20.70;99.90;;;;;;5050143;28;20441;-85
2022/06/27 08:50:43;;;;;;;10.60;9.40;;;20.60;99.90;;;;;;5043501;28;20463;-84
2022/06/27 08:53:12;;;;;;;10.53;9.53;;;20.60;99.90;;;;;;5020123;28;20584;-85
2022/06/27 08:55:46;;;;;;;10.87;9.83;;;20.60;99.90;;;;;;5046384;28;20509;-83
2022/06/27 08:58:14;;;;;;;11.13;10.03;;;20.60;99.90;;;;;;5024585;28;20433;-82
2022/06/27 09:00:49;;;;;;;9.60;8.80;;;20.50;99.90;;;;;;5016670;28;20503;-85
2022/06/27 09:03:20;;;;;;;11.20;10.10;;;20.50;99.90;;;;;;5028076;28;20449;-83
2022/06/27 09:06:04;;;;;;;11.23;10.17;;;20.40;99.90;;;;;;5014453;28;21081;-83
2022/06/27 09:08:36;;;;;;;10.03;9.13;;;20.40;99.90;;;;;;5025859;28;20522;-84
2022/06/27 09:11:03;;;;;;;11.77;8.97;;;20.40;99.90;;;;;;5027334;28;20942;-83
2022/06/27 09:13:31;;;;;;;9.90;9.00;;;20.60;99.90;;;;;;5011508;28;20481;-83
2022/06/27 09:16:00;;;;;;;10.73;9.73;;;20.60;99.90;;;;;;5008464;28;20464;-83
2022/06/27 09:18:34;;;;;;;9.63;8.83;;;20.60;99.90;;;;;;5008310;28;20477;-83
2022/06/27 09:21:09;;;;;;;10.23;9.33;;;20.90;99.90;;;;;;5028979;28;20461;-83
2022/06/27 09:23:47;;;;;;;10.80;9.70;;;20.90;99.90;;;;;;5016160;28;21112;-82
2022/06/27 09:26:18;;;;;;;9.37;8.43;;;20.90;99.90;;;;;;5014926;28;20460;-81
2022/06/27 09:28:47;;;;;;;11.03;9.93;;;20.80;99.90;;;;;;5012976;28;20462;-82
2022/06/27 09:31:27;;;;;;;10.70;9.70;;;20.80;99.90;;;;;;5032129;28;21720;-83
2022/06/27 09:34:09;;;;;;;9.60;8.70;;;20.80;99.90;;;;;;5036491;28;20567;-83
2022/06/27 09:36:42;;;;;;;10.00;9.20;;;20.80;99.90;;;;;;5017973;28;20456;-84
2022/06/27 09:39:30;;;;;;;14.10;10.43;;;21.00;99.90;;;;;;5035474;28;20468;-82
2022/06/27 09:42:10;;;;;;;12.10;11.00;;;21.00;99.90;;;;;;5030760;28;20441;-87
2022/06/27 09:44:39;;;;;;;11.10;9.93;;;21.10;99.90;;;;;;5011462;28;20464;-86
2022/06/27 09:47:19;;;;;;;10.47;9.57;;;21.10;99.90;;;;;;5026043;28;20465;-83
2022/06/27 09:49:50;;;;;;;11.10;10.13;;;21.20;99.90;;;;;;5029694;28;20460;-84
2022/06/27 09:52:24;;;;;;;11.27;10.30;;;21.30;99.90;;;;;;5029374;28;20458;-84
2022/06/27 09:54:54;;;;;;;10.87;9.80;;;21.30;99.90;;;;;;5009525;28;20547;-86
2022/06/27 09:57:22;;;;;;;11.27;10.30;;;21.40;99.90;;;;;;5031235;28;20449;-85
2022/06/27 09:59:51;;;;;;;13.70;11.00;;;21.50;99.90;;;;;;5030722;28;20939;-84
2022/06/27 10:02:21;;;;;;;12.83;11.67;;;21.70;99.90;;;;;;5015445;28;20821;-83
2022/06/27 10:04:48;;;;;;;12.90;11.70;;;21.90;99.90;;;;;;5012950;28;20472;-84
2022/06/27 10:07:17;;;;;;;12.53;11.43;;;22.10;99.70;;;;;;5030105;28;20457;-83
2022/06/27 10:09:48;;;;;;;11.50;10.47;;;22.30;99.10;;;;;;5029177;28;20480;-83
2022/06/27 10:12:31;;;;;;;12.53;11.40;;;22.40;98.50;;;;;;5014829;28;20458;-82
2022/06/27 10:15:10;;;;;;;12.17;10.87;;;22.30;98.80;;;;;;5035615;28;20492;-81
2022/06/27 10:17:38;;;;;;;11.67;10.47;;;22.20;98.80;;;;;;5028127;28;20457;-83
2022/06/27 10:20:41;;;;;;;12.00;10.90;;;22.40;98.50;;;;;;5009970;28;20468;-83
2022/06/27 10:23:13;;;;;;;10.57;9.60;;;22.20;98.60;;;;;;5019215;28;20472;-85
2022/06/27 10:25:46;;;;;;;11.10;10.00;;;22.00;98.30;;;;;;5030406;28;20456;-84
2022/06/27 10:28:16;;;;;;;10.33;9.53;;;21.80;99.00;;;;;;5013733;28;20449;-84
2022/06/27 10:30:51;;;;;;;12.27;11.07;;;21.80;99.20;;;;;;5031089;28;20449;-83
2022/06/27 10:33:21;;;;;;;12.10;10.93;;;22.40;98.30;;;;;;4999834;28;21001;-85
2022/06/27 10:36:13;;;;;;;10.30;9.40;;;22.30;98.00;;;;;;5043231;28;20461;-84
2022/06/27 10:39:01;;;;;;;10.33;9.43;;;22.10;98.40;;;;;;5050530;28;20466;-86
2022/06/27 10:41:33;;;;;;;10.07;9.13;;;22.00;98.50;;;;;;5054596;28;20440;-86
2022/06/27 10:44:01;;;;;;;11.70;10.70;;;21.90;98.60;;;;;;5055665;28;20524;-87
2022/06/27 10:46:28;;;;;;;11.00;9.90;;;21.80;98.70;;;;;;5055660;28;20453;-86
2022/06/27 10:48:57;;;;;;;12.50;11.20;;;21.80;98.60;;;;;;5047206;28;20927;-82
2022/06/27 10:51:34;;;;;;;11.73;10.63;;;21.80;98.70;;;;;;5054430;28;20449;-84
2022/06/27 10:54:06;;;;;;;12.37;10.63;;;21.80;98.50;;;;;;5052561;28;20540;-87
2022/06/27 10:56:51;;;;;;;11.83;10.50;;;21.80;98.50;;;;;;5045921;28;20485;-86
2022/06/27 10:59:23;;;;;;;12.17;11.10;;;21.80;98.60;;;;;;5042350;28;20476;-86
2022/06/27 11:01:51;;;;;;;11.67;10.67;;;22.10;98.40;;;;;;5035365;28;20444;-82
2022/06/27 11:04:29;;;;;;;13.07;11.30;;;22.30;98.10;;;;;;5029837;28;20488;-84
2022/06/27 11:07:01;;;;;;;13.27;12.13;;;22.70;97.90;;;;;;5030093;28;20537;-87
2022/06/27 11:09:38;;;;;;;13.23;11.87;;;23.00;97.40;;;;;;5035170;28;20509;-84
2022/06/27 11:12:07;;;;;;;17.50;12.63;;;22.80;97.30;;;;;;5033057;28;20468;-84
2022/06/27 11:14:44;;;;;;;14.07;12.87;;;22.90;97.10;;;;;;5032870;28;20480;-86
2022/06/27 11:17:33;;;;;;;14.37;13.00;;;22.80;97.10;;;;;;5032597;28;20460;-84
2022/06/27 11:20:14;;;;;;;14.10;12.70;;;22.60;97.40;;;;;;4999985;28;20456;-82
2022/06/27 11:23:02;;;;;;;14.30;12.90;;;22.40;97.80;;;;;;5017553;28;20441;-84
2022/06/27 11:25:30;;;;;;;13.93;12.50;;;22.30;97.90;;;;;;5029010;28;20488;-85
2022/06/27 11:31:57;;;;;;;13.60;12.40;;;22.20;98.00;;;;;;5031837;28;20469;-83
2022/06/27 11:33:35;;;;;;;15.13;13.17;;;22.50;97.30;;;;;;5028483;28;20483;-84
2022/06/27 11:36:05;;;;;;;15.23;11.93;;;22.70;96.80;;;;;;5027627;28;20453;-85
2022/06/27 11:38:47;;;;;;;14.10;12.90;;;23.00;96.20;;;;;;5011558;28;20437;-85
2022/06/27 11:41:26;;;;;;;13.10;11.90;;;23.00;96.00;;;;;;5031341;28;20548;-84
2022/06/27 11:43:59;;;;;;;14.70;12.37;;;22.90;95.80;;;;;;5033389;28;20472;-85
2022/06/27 11:46:33;;;;;;;14.53;11.63;;;22.70;95.90;;;;;;5033577;28;20524;-84
2022/06/27 11:49:12;;;;;;;14.67;11.90;;;22.70;96.50;;;;;;5011574;28;20818;-83
2022/06/27 11:51:41;;;;;;;13.93;12.77;;;22.60;96.20;;;;;;5009033;28;20457;-83
2022/06/27 11:54:14;;;;;;;13.80;12.50;;;22.60;96.00;;;;;;5023496;28;20539;-84
2022/06/27 11:56:43;;;;;;;13.70;12.40;;;23.00;95.40;;;;;;5026555;28;20461;-83
2022/06/27 11:59:12;;;;;;;14.63;13.07;;;23.30;94.40;;;;;;5027232;28;20729;-84
2022/06/27 12:01:59;;;;;;;13.90;12.53;;;23.20;94.80;;;;;;5029694;28;20469;-82
2022/06/27 12:04:30;;;;;;;14.10;12.83;;;23.10;94.50;;;;;;5028014;28;20481;-83
2022/06/27 12:07:08;;;;;;;12.37;11.27;;;23.10;94.40;;;;;;5031150;28;20456;-83
2022/06/27 12:09:51;;;;;;;14.17;12.97;;;23.20;94.40;;;;;;5031110;28;20458;-83
2022/06/27 12:12:24;;;;;;;14.30;13.03;;;23.20;93.70;;;;;;5013289;28;20465;-83
2022/06/27 12:14:53;;;;;;;14.03;12.60;;;23.30;93.50;;;;;;5031747;28;21196;-86
2022/06/27 12:17:21;;;;;;;15.43;13.93;;;24.20;92.00;;;;;;5019640;28;20467;-84
2022/06/27 12:19:59;;;;;;;14.77;13.37;;;24.40;91.40;;;;;;5038040;28;20609;-85
2022/06/27 12:22:25;;;;;;;14.47;12.97;;;24.10;91.50;;;;;;5037788;28;20449;-83
2022/06/27 12:25:12;;;;;;;13.60;12.30;;;24.20;91.40;;;;;;5025109;28;20535;-85
2022/06/27 12:27:41;;;;;;;14.40;13.00;;;24.40;90.20;;;;;;5020443;28;20457;-86
2022/06/27 12:30:08;;;;;;;14.20;12.80;;;24.00;90.60;;;;;;5040202;28;20456;-83
2022/06/27 12:32:35;;;;;;;15.63;14.10;;;23.80;91.40;;;;;;5037977;28;20453;-83
2022/06/27 12:35:03;;;;;;;13.47;12.10;;;23.30;92.60;;;;;;5028844;28;20473;-87
2022/06/27 12:37:34;;;;;;;12.67;11.50;;;22.90;93.40;;;;;;5053587;28;20453;-85
2022/06/27 12:40:02;;;;;;;11.77;10.87;;;22.60;94.20;;;;;;5034544;28;20449;-86
2022/06/27 12:42:29;;;;;;;12.70;11.40;;;22.40;94.40;;;;;;5050586;28;20449;-86
2022/06/27 12:44:56;;;;;;;11.77;10.77;;;22.40;94.80;;;;;;5037057;28;20465;-88
2022/06/27 12:47:23;;;;;;;12.43;10.77;;;22.60;94.60;;;;;;5051252;28;20440;-86
2022/06/27 12:49:55;;;;;;;10.20;8.90;;;22.70;94.00;;;;;;5043241;28;20504;-86
2022/06/27 12:52:22;;;;;;;16.63;8.30;;;23.10;93.10;;;;;;5039430;28;20545;-85
2022/06/27 12:54:48;;;;;;;11.93;7.60;;;23.10;92.10;;;;;;5027136;28;20495;-82
2022/06/27 12:57:16;;;;;;;7.77;7.03;;;23.20;91.70;;;;;;5034893;28;20517;-84
2022/06/27 12:59:43;;;;;;;8.20;7.50;;;24.20;89.50;;;;;;5027188;28;20502;-85